Atoka, TN (38004)

4:44 AM CDT on September 02, 2015 (GMT -0500)
KTNMUNFO2 | | Change Station
CLOSE
Current Station
Personal Weather Station
Location: Munford, TN
Elevation: 394 ft
Nearby Weather Stations

Elev 394 ft 35.42 °N, 89.83 °W | Updated 3 minutes ago

Mostly Cloudy
Mostly Cloudy
70.5 °F
Feels Like 70.5 °F
N
0.0
Wind Variable Wind from North

Today
High -- | Low -- °F
--% Chance of Precip.
Yesterday
High -- | Low -- °F
Precip. -- in
6:32 AM 7:25 PM
Waning Gibbous, 82% visible
Pressure 30.07 in
Visibility 10.0 miles
Clouds Mostly Cloudy 25000 ft
Dew Point 70 °F
Humidity 99%
Rainfall 0.00 in
Snow Depth Not available.
UV 0 out of 12
Pollen 9.70 out of 12
Air Quality Not available.
Flu Activity Not available.
METAR KNQA 020650Z 00000KT 10SM BKN250 24/23 A3007
Pressure 30.07 in
Visibility 10.0 miles
Clouds Mostly Cloudy 25000 ft
Dew Point 70 °F
Humidity 99%
Rainfall 0.00 in
Snow Depth Not available.
UV 0 out of 12
Pollen 9.70 out of 12
Air Quality Not available.
Flu Activity Not available.
METAR KNQA 020650Z 00000KT 10SM BKN250 24/23 A3007

10-Day Weather Forecast

×

Almanac

Astronomy

Sep. 02, 2015 Rise Set
Actual Time
Civil Twilight
Nautical Twilight
Astronomical Twilight
Moon
Length of Visible Light
Length of Day
Tomorrow will be .
, % of the Moon is Illuminated

Today's Extremes

State Highs State Lows

Community

WunderPhotos

Upload Photos

1,851,731 photos uploaded!

WunderBlogs® & News

Nearby

Air Quality

  Air Quality AQ Index Pollutant
Not available.

Snow Depth

Station Depth Elevation

Earthquake Activity

City Distance Mag. Time & Date
Minimum magnitude displayed is 2.5.

Coastal Water Temperatures

Place Temperature

Stations

Nearby Weather Stations

Station Location Temp. Windchill Dew Point Humidity Wind Precip. Elev Updated Type